Honaunau, Hawaii
Current Conditions -  °F | °C
As of 2:53 AM on Saturday 20 Dec 2014 (Local Time) from PHKO Reporting Station
Clear Clear  
Wind Chill: 70°   Ceiling: Unl
Heat Index: 70°   Visibility: 10mi
Dew Point: 60°   Wind: 3mph
Humidity: 71%   Direction: 20°NNE
Pressure: 29.96"   Gusts: NA
Location:  19.42°N, 155.91°W
Report Text: PHKO 201253Z AUTO 02003KT 10SM CLR 21/16 A2996 RMK AO2 SLP147 T02110156 TSNO
Loading
Personal Weather Stations






























Interactive Weather Map New forecast layout! Learn more

10-Day Weather Forecast

Advertisements
Track Severe Weather on mobile